Terminal Aerodrome Forecast
Issued by NWS Charleston, WV

Home | Current Version | Previous Version | Text Only | Print | Product List | Glossary On
Versions: 1 2 3 4 5 6 7 8 9 10 11 12 13 14 15 16 17 18 19 20 21 22 23 24 25 26 27 28 29 30 31
000
FTUS41 KRLX 230200 AAB
TAFEKN
TAF AMD
KEKN 230236Z 2303/2324 00000KT 6SM BR BKN080
     FM230400 00000KT 4SM BR SCT080
     FM230600 VRB03KT 2SM BR SCT010
     FM230900 VRB03KT 1/2SM FG SCT003
     FM231200 23004KT 2SM BR SCT003
     FM231400 24007KT 4SM BR SCT020
     FM231700 24009KT P6SM VCTS SCT030CB
     FM232000 28011G17KT P6SM VCTS BKN035CB
     FM232200 28010G15KT 6SM TSRA BR BKN040CB
     FM232300 27008KT 5SM TSRA BR BKN040CB=

USA.gov is the U.S. government's official web portal to all federal, state and local government web resources and services.